sensor_id;sensor_type;location;lat;lon;timestamp;P1;durP1;ratioP1;P2;durP2;ratioP2
60352;SDS011;46196;52.970;6.954;2022-09-09T00:01:47;12.73;;;9.10;;
60352;SDS011;46196;52.970;6.954;2022-09-09T00:04:35;14.60;;;10.13;;
60352;SDS011;46196;52.970;6.954;2022-09-09T00:15:57;14.55;;;10.00;;
60352;SDS011;46196;52.970;6.954;2022-09-09T00:21:38;14.82;;;9.00;;
60352;SDS011;46196;52.970;6.954;2022-09-09T00:26:59;12.30;;;9.90;;
60352;SDS011;46196;52.970;6.954;2022-09-09T00:32:05;14.35;;;9.63;;
60352;SDS011;46196;52.970;6.954;2022-09-09T00:34:48;13.48;;;9.70;;
60352;SDS011;46196;52.970;6.954;2022-09-09T00:37:24;10.75;;;8.95;;
60352;SDS011;46196;52.970;6.954;2022-09-09T00:39:53;10.60;;;9.13;;
60352;SDS011;46196;52.970;6.954;2022-09-09T00:42:26;13.63;;;9.57;;
60352;SDS011;46196;52.970;6.954;2022-09-09T00:50:28;13.23;;;10.02;;
60352;SDS011;46196;52.970;6.954;2022-09-09T00:53:02;17.27;;;9.30;;
60352;SDS011;46196;52.970;6.954;2022-09-09T00:58:06;12.57;;;9.77;;
60352;SDS011;46196;52.970;6.954;2022-09-09T01:00:57;14.10;;;9.30;;
60352;SDS011;46196;52.970;6.954;2022-09-09T01:03:37;16.35;;;9.32;;
60352;SDS011;46196;52.970;6.954;2022-09-09T01:17:04;12.27;;;8.60;;
60352;SDS011;46196;52.970;6.954;2022-09-09T01:19:40;13.55;;;8.60;;
60352;SDS011;46196;52.970;6.954;2022-09-09T01:27:52;12.50;;;8.43;;
60352;SDS011;46196;52.970;6.954;2022-09-09T01:30:21;12.43;;;8.93;;
60352;SDS011;46196;52.970;6.954;2022-09-09T01:32:53;13.25;;;9.02;;
60352;SDS011;46196;52.970;6.954;2022-09-09T01:35:32;15.82;;;9.13;;
60352;SDS011;46196;52.970;6.954;2022-09-09T01:38:03;11.95;;;8.38;;
60352;SDS011;46196;52.970;6.954;2022-09-09T01:40:29;12.05;;;8.32;;
60352;SDS011;46196;52.970;6.954;2022-09-09T01:42:55;14.98;;;8.50;;
60352;SDS011;46196;52.970;6.954;2022-09-09T01:45:21;11.32;;;7.85;;
60352;SDS011;46196;52.970;6.954;2022-09-09T01:47:48;16.00;;;9.13;;
60352;SDS011;46196;52.970;6.954;2022-09-09T01:50:15;13.70;;;7.88;;
60352;SDS011;46196;52.970;6.954;2022-09-09T01:52:42;11.77;;;7.90;;
60352;SDS011;46196;52.970;6.954;2022-09-09T01:55:10;12.75;;;7.82;;
60352;SDS011;46196;52.970;6.954;2022-09-09T01:57:39;9.98;;;7.10;;
60352;SDS011;46196;52.970;6.954;2022-09-09T02:00:09;11.40;;;6.63;;
60352;SDS011;46196;52.970;6.954;2022-09-09T02:05:55;10.35;;;6.78;;
60352;SDS011;46196;52.970;6.954;2022-09-09T02:08:43;9.15;;;6.35;;
60352;SDS011;46196;52.970;6.954;2022-09-09T02:11:14;15.10;;;6.35;;
60352;SDS011;46196;52.970;6.954;2022-09-09T02:13:41;12.38;;;6.57;;
60352;SDS011;46196;52.970;6.954;2022-09-09T02:21:30;10.23;;;6.05;;
60352;SDS011;46196;52.970;6.954;2022-09-09T02:23:58;9.85;;;6.13;;
60352;SDS011;46196;52.970;6.954;2022-09-09T02:26:29;8.57;;;5.57;;
60352;SDS011;46196;52.970;6.954;2022-09-09T02:28:58;7.05;;;5.60;;
60352;SDS011;46196;52.970;6.954;2022-09-09T02:33:57;7.40;;;4.70;;
60352;SDS011;46196;52.970;6.954;2022-09-09T02:36:26;7.38;;;4.97;;
60352;SDS011;46196;52.970;6.954;2022-09-09T02:38:56;9.85;;;5.95;;
60352;SDS011;46196;52.970;6.954;2022-09-09T02:41:35;10.15;;;6.30;;
60352;SDS011;46196;52.970;6.954;2022-09-09T02:44:09;10.15;;;5.80;;
60352;SDS011;46196;52.970;6.954;2022-09-09T02:46:41;10.70;;;5.50;;
60352;SDS011;46196;52.970;6.954;2022-09-09T02:49:16;8.27;;;5.22;;
60352;SDS011;46196;52.970;6.954;2022-09-09T02:54:41;11.43;;;6.15;;
60352;SDS011;46196;52.970;6.954;2022-09-09T02:57:19;8.93;;;6.00;;
60352;SDS011;46196;52.970;6.954;2022-09-09T02:59:50;8.30;;;6.10;;
60352;SDS011;46196;52.970;6.954;2022-09-09T03:02:17;9.40;;;5.80;;
60352;SDS011;46196;52.970;6.954;2022-09-09T03:04:43;9.77;;;6.70;;
60352;SDS011;46196;52.970;6.954;2022-09-09T03:07:10;11.10;;;6.65;;
60352;SDS011;46196;52.970;6.954;2022-09-09T03:09:37;11.65;;;8.13;;
60352;SDS011;46196;52.970;6.954;2022-09-09T03:12:02;9.57;;;7.18;;
60352;SDS011;46196;52.970;6.954;2022-09-09T03:16:57;12.30;;;8.05;;
60352;SDS011;46196;52.970;6.954;2022-09-09T03:19:25;11.75;;;8.02;;
60352;SDS011;46196;52.970;6.954;2022-09-09T03:21:52;12.85;;;8.93;;
60352;SDS011;46196;52.970;6.954;2022-09-09T03:24:18;14.70;;;8.32;;
60352;SDS011;46196;52.970;6.954;2022-09-09T03:26:45;13.77;;;8.65;;
60352;SDS011;46196;52.970;6.954;2022-09-09T03:29:11;10.23;;;8.00;;
60352;SDS011;46196;52.970;6.954;2022-09-09T03:31:37;13.77;;;9.25;;
60352;SDS011;46196;52.970;6.954;2022-09-09T03:34:04;12.90;;;9.00;;
60352;SDS011;46196;52.970;6.954;2022-09-09T03:36:30;13.60;;;9.23;;
60352;SDS011;46196;52.970;6.954;2022-09-09T03:38:56;13.00;;;9.25;;
60352;SDS011;46196;52.970;6.954;2022-09-09T03:41:23;12.48;;;8.57;;
60352;SDS011;46196;52.970;6.954;2022-09-09T03:43:50;18.83;;;9.63;;
60352;SDS011;46196;52.970;6.954;2022-09-09T03:46:16;11.13;;;8.35;;
60352;SDS011;46196;52.970;6.954;2022-09-09T03:48:43;11.00;;;8.43;;
60352;SDS011;46196;52.970;6.954;2022-09-09T03:51:09;13.38;;;8.13;;
60352;SDS011;46196;52.970;6.954;2022-09-09T03:53:35;12.55;;;8.35;;
60352;SDS011;46196;52.970;6.954;2022-09-09T03:56:02;13.25;;;8.45;;
60352;SDS011;46196;52.970;6.954;2022-09-09T03:58:31;10.38;;;7.68;;
60352;SDS011;46196;52.970;6.954;2022-09-09T04:00:59;10.57;;;7.75;;
60352;SDS011;46196;52.970;6.954;2022-09-09T04:03:28;9.88;;;7.57;;
60352;SDS011;46196;52.970;6.954;2022-09-09T04:05:54;9.38;;;7.32;;
60352;SDS011;46196;52.970;6.954;2022-09-09T04:08:21;9.73;;;6.50;;
60352;SDS011;46196;52.970;6.954;2022-09-09T04:10:48;9.68;;;7.55;;
60352;SDS011;46196;52.970;6.954;2022-09-09T04:13:15;10.93;;;6.82;;
60352;SDS011;46196;52.970;6.954;2022-09-09T04:15:43;8.13;;;6.50;;
60352;SDS011;46196;52.970;6.954;2022-09-09T04:18:10;6.53;;;5.60;;
60352;SDS011;46196;52.970;6.954;2022-09-09T04:20:37;9.15;;;5.57;;
60352;SDS011;46196;52.970;6.954;2022-09-09T04:23:03;6.05;;;4.85;;
60352;SDS011;46196;52.970;6.954;2022-09-09T04:25:30;8.00;;;4.95;;
60352;SDS011;46196;52.970;6.954;2022-09-09T04:27:57;6.93;;;4.10;;
60352;SDS011;46196;52.970;6.954;2022-09-09T04:30:23;5.85;;;3.80;;
60352;SDS011;46196;52.970;6.954;2022-09-09T04:32:50;6.15;;;3.63;;
60352;SDS011;46196;52.970;6.954;2022-09-09T04:35:15;5.70;;;3.78;;
60352;SDS011;46196;52.970;6.954;2022-09-09T04:37:42;6.50;;;4.00;;
60352;SDS011;46196;52.970;6.954;2022-09-09T04:40:07;5.45;;;3.72;;
60352;SDS011;46196;52.970;6.954;2022-09-09T04:42:37;6.68;;;4.07;;
60352;SDS011;46196;52.970;6.954;2022-09-09T04:45:05;7.53;;;4.20;;
60352;SDS011;46196;52.970;6.954;2022-09-09T04:47:39;6.35;;;4.82;;
60352;SDS011;46196;52.970;6.954;2022-09-09T04:50:04;8.77;;;5.60;;
60352;SDS011;46196;52.970;6.954;2022-09-09T04:52:31;10.07;;;5.40;;
60352;SDS011;46196;52.970;6.954;2022-09-09T04:54:58;9.13;;;5.63;;
60352;SDS011;46196;52.970;6.954;2022-09-09T04:57:24;8.63;;;5.80;;
60352;SDS011;46196;52.970;6.954;2022-09-09T04:59:50;8.48;;;5.65;;
60352;SDS011;46196;52.970;6.954;2022-09-09T05:02:15;10.80;;;6.60;;
60352;SDS011;46196;52.970;6.954;2022-09-09T05:04:41;9.43;;;5.90;;
60352;SDS011;46196;52.970;6.954;2022-09-09T05:07:07;8.80;;;5.90;;
60352;SDS011;46196;52.970;6.954;2022-09-09T05:09:33;8.57;;;6.43;;
60352;SDS011;46196;52.970;6.954;2022-09-09T05:11:58;11.90;;;6.68;;
60352;SDS011;46196;52.970;6.954;2022-09-09T05:14:24;10.07;;;6.22;;
60352;SDS011;46196;52.970;6.954;2022-09-09T05:16:51;8.85;;;6.30;;
60352;SDS011;46196;52.970;6.954;2022-09-09T05:19:17;9.13;;;6.63;;
60352;SDS011;46196;52.970;6.954;2022-09-09T05:21:44;8.27;;;6.00;;
60352;SDS011;46196;52.970;6.954;2022-09-09T05:24:10;10.88;;;6.80;;
60352;SDS011;46196;52.970;6.954;2022-09-09T05:26:36;10.05;;;6.88;;
60352;SDS011;46196;52.970;6.954;2022-09-09T05:29:02;8.75;;;6.40;;
60352;SDS011;46196;52.970;6.954;2022-09-09T05:31:29;9.10;;;6.78;;
60352;SDS011;46196;52.970;6.954;2022-09-09T05:33:55;9.82;;;6.78;;
60352;SDS011;46196;52.970;6.954;2022-09-09T05:36:21;9.43;;;6.75;;
60352;SDS011;46196;52.970;6.954;2022-09-09T05:38:47;9.40;;;6.72;;
60352;SDS011;46196;52.970;6.954;2022-09-09T05:41:15;8.38;;;6.28;;
60352;SDS011;46196;52.970;6.954;2022-09-09T05:43:42;10.02;;;6.18;;
60352;SDS011;46196;52.970;6.954;2022-09-09T05:46:15;9.45;;;7.00;;
60352;SDS011;46196;52.970;6.954;2022-09-09T05:48:50;9.68;;;7.00;;
60352;SDS011;46196;52.970;6.954;2022-09-09T05:51:18;11.50;;;6.95;;
60352;SDS011;46196;52.970;6.954;2022-09-09T05:53:47;8.65;;;6.82;;
60352;SDS011;46196;52.970;6.954;2022-09-09T05:56:14;9.75;;;7.03;;
60352;SDS011;46196;52.970;6.954;2022-09-09T05:58:42;10.60;;;7.22;;
60352;SDS011;46196;52.970;6.954;2022-09-09T06:01:13;9.63;;;7.28;;
60352;SDS011;46196;52.970;6.954;2022-09-09T06:03:41;10.98;;;7.70;;
60352;SDS011;46196;52.970;6.954;2022-09-09T06:06:08;9.68;;;7.13;;
60352;SDS011;46196;52.970;6.954;2022-09-09T06:08:37;10.30;;;6.32;;
60352;SDS011;46196;52.970;6.954;2022-09-09T06:11:04;13.45;;;6.90;;
60352;SDS011;46196;52.970;6.954;2022-09-09T06:13:32;9.98;;;6.68;;
60352;SDS011;46196;52.970;6.954;2022-09-09T06:15:58;9.48;;;7.22;;
60352;SDS011;46196;52.970;6.954;2022-09-09T06:18:25;10.40;;;7.18;;
60352;SDS011;46196;52.970;6.954;2022-09-09T06:20:54;8.32;;;6.38;;
60352;SDS011;46196;52.970;6.954;2022-09-09T06:23:20;12.68;;;6.55;;
60352;SDS011;46196;52.970;6.954;2022-09-09T06:25:46;8.45;;;6.65;;
60352;SDS011;46196;52.970;6.954;2022-09-09T06:28:11;9.40;;;5.82;;
60352;SDS011;46196;52.970;6.954;2022-09-09T06:30:38;8.60;;;6.15;;
60352;SDS011;46196;52.970;6.954;2022-09-09T06:33:05;10.15;;;6.68;;
60352;SDS011;46196;52.970;6.954;2022-09-09T06:35:30;8.18;;;6.18;;
60352;SDS011;46196;52.970;6.954;2022-09-09T06:37:56;8.05;;;6.32;;
60352;SDS011;46196;52.970;6.954;2022-09-09T06:40:23;11.27;;;6.28;;
60352;SDS011;46196;52.970;6.954;2022-09-09T06:42:50;10.05;;;7.47;;
60352;SDS011;46196;52.970;6.954;2022-09-09T06:45:16;8.77;;;6.32;;
60352;SDS011;46196;52.970;6.954;2022-09-09T06:47:42;9.88;;;6.25;;
60352;SDS011;46196;52.970;6.954;2022-09-09T06:50:09;8.32;;;6.32;;
60352;SDS011;46196;52.970;6.954;2022-09-09T06:52:36;7.75;;;6.13;;
60352;SDS011;46196;52.970;6.954;2022-09-09T06:55:02;8.75;;;5.63;;
60352;SDS011;46196;52.970;6.954;2022-09-09T06:57:28;8.00;;;5.85;;
60352;SDS011;46196;52.970;6.954;2022-09-09T06:59:54;7.47;;;5.78;;
60352;SDS011;46196;52.970;6.954;2022-09-09T07:02:20;6.32;;;4.85;;
60352;SDS011;46196;52.970;6.954;2022-09-09T07:04:46;6.80;;;5.15;;
60352;SDS011;46196;52.970;6.954;2022-09-09T07:07:12;7.32;;;5.82;;
60352;SDS011;46196;52.970;6.954;2022-09-09T07:09:40;8.13;;;5.78;;
60352;SDS011;46196;52.970;6.954;2022-09-09T07:12:06;9.15;;;5.32;;
60352;SDS011;46196;52.970;6.954;2022-09-09T07:14:32;6.38;;;5.30;;
60352;SDS011;46196;52.970;6.954;2022-09-09T07:16:59;6.55;;;4.93;;
60352;SDS011;46196;52.970;6.954;2022-09-09T07:19:25;6.25;;;5.15;;
60352;SDS011;46196;52.970;6.954;2022-09-09T07:21:51;7.65;;;6.03;;
60352;SDS011;46196;52.970;6.954;2022-09-09T07:24:17;8.20;;;5.80;;
60352;SDS011;46196;52.970;6.954;2022-09-09T07:26:42;5.90;;;5.28;;
60352;SDS011;46196;52.970;6.954;2022-09-09T07:29:09;6.28;;;5.30;;
60352;SDS011;46196;52.970;6.954;2022-09-09T07:31:36;7.93;;;5.45;;
60352;SDS011;46196;52.970;6.954;2022-09-09T07:34:05;6.80;;;5.40;;
60352;SDS011;46196;52.970;6.954;2022-09-09T07:36:32;9.10;;;6.00;;
60352;SDS011;46196;52.970;6.954;2022-09-09T07:39:00;7.40;;;5.80;;
60352;SDS011;46196;52.970;6.954;2022-09-09T07:41:33;7.05;;;5.30;;
60352;SDS011;46196;52.970;6.954;2022-09-09T07:44:10;6.53;;;5.72;;
60352;SDS011;46196;52.970;6.954;2022-09-09T07:46:37;6.78;;;5.40;;
60352;SDS011;46196;52.970;6.954;2022-09-09T07:49:04;6.68;;;5.53;;
60352;SDS011;46196;52.970;6.954;2022-09-09T07:51:32;7.68;;;5.80;;
60352;SDS011;46196;52.970;6.954;2022-09-09T07:54:01;7.13;;;5.63;;
60352;SDS011;46196;52.970;6.954;2022-09-09T07:56:29;6.07;;;4.97;;
60352;SDS011;46196;52.970;6.954;2022-09-09T07:58:56;7.32;;;4.50;;
60352;SDS011;46196;52.970;6.954;2022-09-09T08:03:57;6.10;;;5.25;;
60352;SDS011;46196;52.970;6.954;2022-09-09T08:06:31;6.07;;;4.97;;
60352;SDS011;46196;52.970;6.954;2022-09-09T08:08:59;7.13;;;4.45;;
60352;SDS011;46196;52.970;6.954;2022-09-09T08:11:26;6.05;;;4.53;;
60352;SDS011;46196;52.970;6.954;2022-09-09T08:13:53;7.70;;;4.03;;
60352;SDS011;46196;52.970;6.954;2022-09-09T08:16:21;7.82;;;3.97;;
60352;SDS011;46196;52.970;6.954;2022-09-09T08:18:52;5.10;;;3.97;;
60352;SDS011;46196;52.970;6.954;2022-09-09T08:23:50;8.18;;;4.03;;
60352;SDS011;46196;52.970;6.954;2022-09-09T08:26:21;6.43;;;4.40;;
60352;SDS011;46196;52.970;6.954;2022-09-09T08:28:49;6.45;;;4.20;;
60352;SDS011;46196;52.970;6.954;2022-09-09T08:31:27;7.30;;;4.03;;
60352;SDS011;46196;52.970;6.954;2022-09-09T08:33:53;5.57;;;4.30;;
60352;SDS011;46196;52.970;6.954;2022-09-09T08:36:20;6.40;;;4.03;;
60352;SDS011;46196;52.970;6.954;2022-09-09T08:38:48;6.40;;;4.25;;
60352;SDS011;46196;52.970;6.954;2022-09-09T08:52:19;6.35;;;4.30;;
60352;SDS011;46196;52.970;6.954;2022-09-09T08:54:50;5.43;;;3.92;;
60352;SDS011;46196;52.970;6.954;2022-09-09T08:57:21;6.03;;;3.88;;
60352;SDS011;46196;52.970;6.954;2022-09-09T08:59:51;5.65;;;4.10;;
60352;SDS011;46196;52.970;6.954;2022-09-09T09:02:36;6.95;;;4.00;;
60352;SDS011;46196;52.970;6.954;2022-09-09T09:10:38;6.20;;;4.32;;
60352;SDS011;46196;52.970;6.954;2022-09-09T09:13:17;6.68;;;3.78;;
60352;SDS011;46196;52.970;6.954;2022-09-09T09:15:46;5.97;;;4.40;;
60352;SDS011;46196;52.970;6.954;2022-09-09T09:18:25;6.05;;;4.10;;
60352;SDS011;46196;52.970;6.954;2022-09-09T09:21:06;6.10;;;4.05;;
60352;SDS011;46196;52.970;6.954;2022-09-09T09:23:39;7.57;;;3.47;;
60352;SDS011;46196;52.970;6.954;2022-09-09T09:26:20;6.05;;;3.35;;
60352;SDS011;46196;52.970;6.954;2022-09-09T09:28:48;5.82;;;3.40;;
60352;SDS011;46196;52.970;6.954;2022-09-09T09:31:16;5.28;;;3.10;;
60352;SDS011;46196;52.970;6.954;2022-09-09T09:36:13;9.55;;;3.47;;
60352;SDS011;46196;52.970;6.954;2022-09-09T09:38:55;6.18;;;3.22;;
60352;SDS011;46196;52.970;6.954;2022-09-09T09:41:28;7.55;;;3.42;;
60352;SDS011;46196;52.970;6.954;2022-09-09T09:43:56;5.95;;;3.03;;
60352;SDS011;46196;52.970;6.954;2022-09-09T09:46:22;7.78;;;3.40;;
60352;SDS011;46196;52.970;6.954;2022-09-09T09:49:00;7.63;;;3.42;;
60352;SDS011;46196;52.970;6.954;2022-09-09T09:51:28;6.88;;;3.70;;
60352;SDS011;46196;52.970;6.954;2022-09-09T09:54:03;6.07;;;3.10;;
60352;SDS011;46196;52.970;6.954;2022-09-09T10:02:23;6.30;;;3.00;;
60352;SDS011;46196;52.970;6.954;2022-09-09T10:05:01;6.22;;;3.17;;
60352;SDS011;46196;52.970;6.954;2022-09-09T10:07:27;5.80;;;2.90;;
60352;SDS011;46196;52.970;6.954;2022-09-09T10:09:55;5.28;;;2.63;;
60352;SDS011;46196;52.970;6.954;2022-09-09T10:24:17;5.85;;;2.90;;
60352;SDS011;46196;52.970;6.954;2022-09-09T10:26:54;8.90;;;2.70;;
60352;SDS011;46196;52.970;6.954;2022-09-09T10:29:46;4.00;;;2.60;;
60352;SDS011;46196;52.970;6.954;2022-09-09T10:51:21;5.28;;;2.40;;
60352;SDS011;46196;52.970;6.954;2022-09-09T10:56:41;6.20;;;2.65;;
60352;SDS011;46196;52.970;6.954;2022-09-09T10:59:12;10.32;;;2.90;;
60352;SDS011;46196;52.970;6.954;2022-09-09T11:01:49;5.47;;;2.35;;
60352;SDS011;46196;52.970;6.954;2022-09-09T11:04:44;5.85;;;2.30;;
60352;SDS011;46196;52.970;6.954;2022-09-09T11:07:42;4.50;;;2.15;;
60352;SDS011;46196;52.970;6.954;2022-09-09T11:10:17;5.28;;;2.53;;
60352;SDS011;46196;52.970;6.954;2022-09-09T11:12:57;4.28;;;2.28;;
60352;SDS011;46196;52.970;6.954;2022-09-09T11:15:35;5.38;;;2.42;;
60352;SDS011;46196;52.970;6.954;2022-09-09T11:18:06;6.03;;;2.70;;
60352;SDS011;46196;52.970;6.954;2022-09-09T11:20:39;4.43;;;2.42;;
60352;SDS011;46196;52.970;6.954;2022-09-09T11:23:17;8.88;;;2.80;;
60352;SDS011;46196;52.970;6.954;2022-09-09T11:25:48;5.72;;;2.63;;
60352;SDS011;46196;52.970;6.954;2022-09-09T11:28:28;7.53;;;2.70;;
60352;SDS011;46196;52.970;6.954;2022-09-09T11:31:05;5.85;;;2.40;;
60352;SDS011;46196;52.970;6.954;2022-09-09T11:38:58;4.72;;;2.10;;
60352;SDS011;46196;52.970;6.954;2022-09-09T11:41:43;4.53;;;2.10;;
60352;SDS011;46196;52.970;6.954;2022-09-09T11:44:12;5.55;;;2.20;;
60352;SDS011;46196;52.970;6.954;2022-09-09T11:46:59;6.57;;;2.00;;
60352;SDS011;46196;52.970;6.954;2022-09-09T11:49:29;2.97;;;1.90;;
60352;SDS011;46196;52.970;6.954;2022-09-09T11:52:11;3.97;;;1.83;;
60352;SDS011;46196;52.970;6.954;2022-09-09T11:54:55;4.60;;;2.03;;
60352;SDS011;46196;52.970;6.954;2022-09-09T11:59:59;3.75;;;2.10;;
60352;SDS011;46196;52.970;6.954;2022-09-09T12:02:26;3.22;;;1.95;;
60352;SDS011;46196;52.970;6.954;2022-09-09T12:05:00;3.55;;;1.98;;
60352;SDS011;46196;52.970;6.954;2022-09-09T12:07:37;4.30;;;2.05;;
60352;SDS011;46196;52.970;6.954;2022-09-09T12:12:34;4.57;;;1.95;;
60352;SDS011;46196;52.970;6.954;2022-09-09T12:17:49;3.22;;;1.70;;
60352;SDS011;46196;52.970;6.954;2022-09-09T12:28:16;3.30;;;1.80;;
60352;SDS011;46196;52.970;6.954;2022-09-09T12:30:59;3.03;;;1.60;;
60352;SDS011;46196;52.970;6.954;2022-09-09T12:33:35;5.15;;;1.92;;
60352;SDS011;46196;52.970;6.954;2022-09-09T12:36:02;4.30;;;1.60;;
60352;SDS011;46196;52.970;6.954;2022-09-09T12:41:04;6.07;;;2.00;;
60352;SDS011;46196;52.970;6.954;2022-09-09T12:43:30;3.80;;;1.98;;
60352;SDS011;46196;52.970;6.954;2022-09-09T12:46:03;6.43;;;2.20;;
60352;SDS011;46196;52.970;6.954;2022-09-09T12:48:36;4.72;;;2.22;;
60352;SDS011;46196;52.970;6.954;2022-09-09T12:51:06;3.80;;;2.00;;
60352;SDS011;46196;52.970;6.954;2022-09-09T12:53:50;3.47;;;1.60;;
60352;SDS011;46196;52.970;6.954;2022-09-09T12:56:20;2.90;;;1.55;;
60352;SDS011;46196;52.970;6.954;2022-09-09T12:58:49;5.20;;;2.00;;
60352;SDS011;46196;52.970;6.954;2022-09-09T13:01:21;3.10;;;1.67;;
60352;SDS011;46196;52.970;6.954;2022-09-09T13:03:51;4.30;;;2.00;;
60352;SDS011;46196;52.970;6.954;2022-09-09T13:06:25;3.63;;;1.80;;
60352;SDS011;46196;52.970;6.954;2022-09-09T13:08:55;3.22;;;1.70;;
60352;SDS011;46196;52.970;6.954;2022-09-09T13:14:01;4.13;;;1.85;;
60352;SDS011;46196;52.970;6.954;2022-09-09T13:16:32;4.65;;;1.65;;
60352;SDS011;46196;52.970;6.954;2022-09-09T13:19:09;4.22;;;1.80;;
60352;SDS011;46196;52.970;6.954;2022-09-09T13:21:40;5.95;;;1.98;;
60352;SDS011;46196;52.970;6.954;2022-09-09T13:26:57;4.82;;;2.10;;
60352;SDS011;46196;52.970;6.954;2022-09-09T13:29:27;6.78;;;2.47;;
60352;SDS011;46196;52.970;6.954;2022-09-09T13:31:53;8.02;;;2.28;;
60352;SDS011;46196;52.970;6.954;2022-09-09T13:34:29;6.85;;;2.00;;
60352;SDS011;46196;52.970;6.954;2022-09-09T13:37:07;10.02;;;1.70;;
60352;SDS011;46196;52.970;6.954;2022-09-09T13:40:03;3.83;;;1.35;;
60352;SDS011;46196;52.970;6.954;2022-09-09T13:42:35;2.35;;;1.33;;
60352;SDS011;46196;52.970;6.954;2022-09-09T13:45:05;3.05;;;1.48;;
60352;SDS011;46196;52.970;6.954;2022-09-09T13:47:40;3.00;;;1.58;;
60352;SDS011;46196;52.970;6.954;2022-09-09T13:50:26;5.78;;;2.40;;
60352;SDS011;46196;52.970;6.954;2022-09-09T13:52:54;7.43;;;2.40;;
60352;SDS011;46196;52.970;6.954;2022-09-09T13:55:23;5.63;;;2.30;;
60352;SDS011;46196;52.970;6.954;2022-09-09T13:57:55;5.18;;;2.17;;
60352;SDS011;46196;52.970;6.954;2022-09-09T14:00:23;5.43;;;2.30;;
60352;SDS011;46196;52.970;6.954;2022-09-09T14:02:49;4.13;;;2.13;;
60352;SDS011;46196;52.970;6.954;2022-09-09T14:05:16;3.80;;;2.10;;
60352;SDS011;46196;52.970;6.954;2022-09-09T14:07:43;7.75;;;2.40;;
60352;SDS011;46196;52.970;6.954;2022-09-09T14:10:10;5.72;;;2.42;;
60352;SDS011;46196;52.970;6.954;2022-09-09T14:12:36;4.05;;;2.00;;
60352;SDS011;46196;52.970;6.954;2022-09-09T14:15:02;5.43;;;2.30;;
60352;SDS011;46196;52.970;6.954;2022-09-09T14:17:29;4.05;;;2.03;;
60352;SDS011;46196;52.970;6.954;2022-09-09T14:19:56;4.53;;;2.30;;
60352;SDS011;46196;52.970;6.954;2022-09-09T14:22:23;4.05;;;2.00;;
60352;SDS011;46196;52.970;6.954;2022-09-09T14:24:50;4.45;;;2.28;;
60352;SDS011;46196;52.970;6.954;2022-09-09T14:27:16;4.85;;;2.53;;
60352;SDS011;46196;52.970;6.954;2022-09-09T14:29:43;5.22;;;2.20;;
60352;SDS011;46196;52.970;6.954;2022-09-09T14:32:10;3.90;;;2.33;;
60352;SDS011;46196;52.970;6.954;2022-09-09T14:34:36;4.32;;;2.30;;
60352;SDS011;46196;52.970;6.954;2022-09-09T14:37:02;5.95;;;2.33;;
60352;SDS011;46196;52.970;6.954;2022-09-09T14:39:28;4.22;;;2.30;;
60352;SDS011;46196;52.970;6.954;2022-09-09T14:41:54;3.50;;;2.10;;
60352;SDS011;46196;52.970;6.954;2022-09-09T14:44:20;4.32;;;1.88;;
60352;SDS011;46196;52.970;6.954;2022-09-09T14:46:46;6.25;;;2.20;;
60352;SDS011;46196;52.970;6.954;2022-09-09T14:49:15;2.93;;;1.90;;
60352;SDS011;46196;52.970;6.954;2022-09-09T14:51:40;3.80;;;2.05;;
60352;SDS011;46196;52.970;6.954;2022-09-09T14:54:07;2.70;;;1.60;;
60352;SDS011;46196;52.970;6.954;2022-09-09T14:56:33;3.35;;;1.60;;
60352;SDS011;46196;52.970;6.954;2022-09-09T14:58:59;2.13;;;1.38;;
60352;SDS011;46196;52.970;6.954;2022-09-09T15:01:26;1.80;;;1.08;;
60352;SDS011;46196;52.970;6.954;2022-09-09T15:03:57;0.88;;;0.80;;
60352;SDS011;46196;52.970;6.954;2022-09-09T15:06:25;0.88;;;0.88;;
60352;SDS011;46196;52.970;6.954;2022-09-09T15:08:52;2.45;;;1.30;;
60352;SDS011;46196;52.970;6.954;2022-09-09T15:11:19;1.15;;;0.80;;
60352;SDS011;46196;52.970;6.954;2022-09-09T15:13:45;0.85;;;0.85;;
60352;SDS011;46196;52.970;6.954;2022-09-09T15:16:16;1.40;;;1.08;;
60352;SDS011;46196;52.970;6.954;2022-09-09T15:18:43;1.73;;;1.27;;
60352;SDS011;46196;52.970;6.954;2022-09-09T15:21:17;1.80;;;1.20;;
60352;SDS011;46196;52.970;6.954;2022-09-09T15:23:44;2.08;;;1.27;;
60352;SDS011;46196;52.970;6.954;2022-09-09T15:26:11;2.25;;;1.38;;
60352;SDS011;46196;52.970;6.954;2022-09-09T15:28:39;2.45;;;1.50;;
60352;SDS011;46196;52.970;6.954;2022-09-09T15:31:12;2.22;;;1.58;;
60352;SDS011;46196;52.970;6.954;2022-09-09T15:34:11;7.70;;;6.13;;
60352;SDS011;46196;52.970;6.954;2022-09-09T15:36:42;3.08;;;1.80;;
60352;SDS011;46196;52.970;6.954;2022-09-09T15:39:12;2.75;;;1.90;;
60352;SDS011;46196;52.970;6.954;2022-09-09T15:41:41;3.05;;;1.67;;
60352;SDS011;46196;52.970;6.954;2022-09-09T15:44:11;3.70;;;1.92;;
60352;SDS011;46196;52.970;6.954;2022-09-09T15:49:11;2.80;;;1.80;;
60352;SDS011;46196;52.970;6.954;2022-09-09T15:51:45;2.85;;;1.83;;
60352;SDS011;46196;52.970;6.954;2022-09-09T15:54:23;3.63;;;1.90;;
60352;SDS011;46196;52.970;6.954;2022-09-09T15:56:51;2.70;;;1.80;;
60352;SDS011;46196;52.970;6.954;2022-09-09T15:59:20;3.65;;;1.90;;
60352;SDS011;46196;52.970;6.954;2022-09-09T16:01:47;2.88;;;1.70;;
60352;SDS011;46196;52.970;6.954;2022-09-09T16:04:17;3.15;;;1.90;;
60352;SDS011;46196;52.970;6.954;2022-09-09T16:06:48;3.78;;;1.80;;
60352;SDS011;46196;52.970;6.954;2022-09-09T16:09:15;3.65;;;1.90;;
60352;SDS011;46196;52.970;6.954;2022-09-09T16:11:41;3.00;;;1.77;;
60352;SDS011;46196;52.970;6.954;2022-09-09T16:14:07;4.47;;;1.95;;
60352;SDS011;46196;52.970;6.954;2022-09-09T16:16:33;3.38;;;1.90;;
60352;SDS011;46196;52.970;6.954;2022-09-09T16:19:02;3.88;;;1.85;;
60352;SDS011;46196;52.970;6.954;2022-09-09T16:21:37;3.17;;;2.03;;
60352;SDS011;46196;52.970;6.954;2022-09-09T16:24:06;3.22;;;1.65;;
60352;SDS011;46196;52.970;6.954;2022-09-09T16:26:34;2.97;;;1.77;;
60352;SDS011;46196;52.970;6.954;2022-09-09T16:29:02;2.92;;;1.88;;
60352;SDS011;46196;52.970;6.954;2022-09-09T16:31:29;3.38;;;1.90;;
60352;SDS011;46196;52.970;6.954;2022-09-09T16:33:56;3.70;;;1.85;;
60352;SDS011;46196;52.970;6.954;2022-09-09T16:36:26;3.45;;;1.75;;
60352;SDS011;46196;52.970;6.954;2022-09-09T16:38:56;2.85;;;1.83;;
60352;SDS011;46196;52.970;6.954;2022-09-09T16:41:24;3.10;;;2.27;;
60352;SDS011;46196;52.970;6.954;2022-09-09T16:43:56;2.17;;;1.90;;
60352;SDS011;46196;52.970;6.954;2022-09-09T16:46:27;3.75;;;1.95;;
60352;SDS011;46196;52.970;6.954;2022-09-09T16:48:55;3.10;;;1.92;;
60352;SDS011;46196;52.970;6.954;2022-09-09T16:51:24;3.42;;;1.90;;
60352;SDS011;46196;52.970;6.954;2022-09-09T16:53:53;4.28;;;2.13;;
60352;SDS011;46196;52.970;6.954;2022-09-09T16:56:21;3.20;;;2.00;;
60352;SDS011;46196;52.970;6.954;2022-09-09T16:58:51;3.08;;;1.92;;
60352;SDS011;46196;52.970;6.954;2022-09-09T17:01:19;3.38;;;1.98;;
60352;SDS011;46196;52.970;6.954;2022-09-09T17:03:44;4.07;;;2.20;;
60352;SDS011;46196;52.970;6.954;2022-09-09T17:06:11;2.83;;;1.90;;
60352;SDS011;46196;52.970;6.954;2022-09-09T17:08:38;4.93;;;2.50;;
60352;SDS011;46196;52.970;6.954;2022-09-09T17:11:16;4.90;;;2.15;;
60352;SDS011;46196;52.970;6.954;2022-09-09T17:13:43;3.63;;;2.10;;
60352;SDS011;46196;52.970;6.954;2022-09-09T17:16:11;3.70;;;2.10;;
60352;SDS011;46196;52.970;6.954;2022-09-09T17:18:38;4.72;;;2.33;;
60352;SDS011;46196;52.970;6.954;2022-09-09T17:21:09;5.07;;;2.38;;
60352;SDS011;46196;52.970;6.954;2022-09-09T17:23:39;3.03;;;2.10;;
60352;SDS011;46196;52.970;6.954;2022-09-09T17:26:06;3.47;;;2.10;;
60352;SDS011;46196;52.970;6.954;2022-09-09T17:28:35;4.10;;;2.20;;
60352;SDS011;46196;52.970;6.954;2022-09-09T17:31:04;4.35;;;2.17;;
60352;SDS011;46196;52.970;6.954;2022-09-09T17:33:35;4.03;;;2.20;;
60352;SDS011;46196;52.970;6.954;2022-09-09T17:36:06;6.78;;;2.15;;